sensor_id;sensor_type;location;lat;lon;timestamp;P1;durP1;ratioP1;P2;durP2;ratioP2
21326;SDS011;10822;51.532;6.770;2023-04-30T00:01:13;10.05;;;6.97;;
21326;SDS011;10822;51.532;6.770;2023-04-30T00:03:39;10.98;;;6.60;;
21326;SDS011;10822;51.532;6.770;2023-04-30T00:06:05;13.18;;;6.53;;
21326;SDS011;10822;51.532;6.770;2023-04-30T00:08:31;10.57;;;6.47;;
21326;SDS011;10822;51.532;6.770;2023-04-30T00:10:57;8.93;;;6.72;;
21326;SDS011;10822;51.532;6.770;2023-04-30T00:13:23;9.85;;;6.72;;
21326;SDS011;10822;51.532;6.770;2023-04-30T00:15:49;10.00;;;6.70;;
21326;SDS011;10822;51.532;6.770;2023-04-30T00:18:15;8.60;;;6.82;;
21326;SDS011;10822;51.532;6.770;2023-04-30T00:20:41;9.20;;;6.43;;
21326;SDS011;10822;51.532;6.770;2023-04-30T00:23:07;10.45;;;7.10;;
21326;SDS011;10822;51.532;6.770;2023-04-30T00:25:33;10.10;;;6.82;;
21326;SDS011;10822;51.532;6.770;2023-04-30T00:27:59;9.98;;;6.80;;
21326;SDS011;10822;51.532;6.770;2023-04-30T00:30:25;10.10;;;7.13;;
21326;SDS011;10822;51.532;6.770;2023-04-30T00:32:51;11.13;;;7.57;;
21326;SDS011;10822;51.532;6.770;2023-04-30T00:35:17;8.75;;;7.03;;
21326;SDS011;10822;51.532;6.770;2023-04-30T00:37:43;11.27;;;7.07;;
21326;SDS011;10822;51.532;6.770;2023-04-30T00:40:09;10.80;;;7.38;;
21326;SDS011;10822;51.532;6.770;2023-04-30T00:42:35;9.48;;;6.57;;
21326;SDS011;10822;51.532;6.770;2023-04-30T00:45:01;9.60;;;7.03;;
21326;SDS011;10822;51.532;6.770;2023-04-30T00:47:27;8.75;;;6.28;;
21326;SDS011;10822;51.532;6.770;2023-04-30T00:49:55;9.98;;;6.93;;
21326;SDS011;10822;51.532;6.770;2023-04-30T00:52:21;8.50;;;7.03;;
21326;SDS011;10822;51.532;6.770;2023-04-30T00:54:47;10.43;;;7.07;;
21326;SDS011;10822;51.532;6.770;2023-04-30T00:57:14;8.90;;;6.95;;
21326;SDS011;10822;51.532;6.770;2023-04-30T00:59:40;12.25;;;6.72;;
21326;SDS011;10822;51.532;6.770;2023-04-30T01:02:06;10.30;;;7.25;;
21326;SDS011;10822;51.532;6.770;2023-04-30T01:04:32;9.70;;;7.07;;
21326;SDS011;10822;51.532;6.770;2023-04-30T01:06:59;9.27;;;6.82;;
21326;SDS011;10822;51.532;6.770;2023-04-30T01:09:26;11.15;;;7.72;;
21326;SDS011;10822;51.532;6.770;2023-04-30T01:14:40;11.13;;;7.20;;
21326;SDS011;10822;51.532;6.770;2023-04-30T01:17:16;10.75;;;7.70;;
21326;SDS011;10822;51.532;6.770;2023-04-30T01:19:46;8.68;;;6.93;;
21326;SDS011;10822;51.532;6.770;2023-04-30T01:22:56;10.13;;;7.35;;
21326;SDS011;10822;51.532;6.770;2023-04-30T01:25:24;9.18;;;7.20;;
21326;SDS011;10822;51.532;6.770;2023-04-30T01:30:31;11.38;;;7.22;;
21326;SDS011;10822;51.532;6.770;2023-04-30T01:32:57;10.18;;;7.53;;
21326;SDS011;10822;51.532;6.770;2023-04-30T01:35:32;12.65;;;7.63;;
21326;SDS011;10822;51.532;6.770;2023-04-30T01:40:41;12.05;;;8.45;;
21326;SDS011;10822;51.532;6.770;2023-04-30T01:43:11;12.07;;;8.05;;
21326;SDS011;10822;51.532;6.770;2023-04-30T01:48:18;11.98;;;8.70;;
21326;SDS011;10822;51.532;6.770;2023-04-30T01:50:49;11.02;;;7.68;;
21326;SDS011;10822;51.532;6.770;2023-04-30T01:53:18;10.80;;;7.75;;
21326;SDS011;10822;51.532;6.770;2023-04-30T01:55:49;11.13;;;8.25;;
21326;SDS011;10822;51.532;6.770;2023-04-30T01:58:16;10.68;;;8.30;;
21326;SDS011;10822;51.532;6.770;2023-04-30T02:00:42;10.65;;;7.65;;
21326;SDS011;10822;51.532;6.770;2023-04-30T02:03:08;10.68;;;8.00;;
21326;SDS011;10822;51.532;6.770;2023-04-30T02:05:34;9.85;;;7.45;;
21326;SDS011;10822;51.532;6.770;2023-04-30T02:08:00;12.05;;;7.80;;
21326;SDS011;10822;51.532;6.770;2023-04-30T02:10:27;10.43;;;8.10;;
21326;SDS011;10822;51.532;6.770;2023-04-30T02:12:54;11.80;;;8.43;;
21326;SDS011;10822;51.532;6.770;2023-04-30T02:15:20;11.60;;;8.25;;
21326;SDS011;10822;51.532;6.770;2023-04-30T02:17:46;12.07;;;8.80;;
21326;SDS011;10822;51.532;6.770;2023-04-30T02:20:12;11.50;;;8.45;;
21326;SDS011;10822;51.532;6.770;2023-04-30T02:22:38;11.65;;;8.55;;
21326;SDS011;10822;51.532;6.770;2023-04-30T02:25:04;12.45;;;8.40;;
21326;SDS011;10822;51.532;6.770;2023-04-30T02:27:31;11.25;;;8.27;;
21326;SDS011;10822;51.532;6.770;2023-04-30T02:29:57;11.57;;;7.93;;
21326;SDS011;10822;51.532;6.770;2023-04-30T02:32:23;11.15;;;8.15;;
21326;SDS011;10822;51.532;6.770;2023-04-30T02:34:49;11.95;;;9.02;;
21326;SDS011;10822;51.532;6.770;2023-04-30T02:37:15;12.73;;;9.00;;
21326;SDS011;10822;51.532;6.770;2023-04-30T02:39:41;13.25;;;8.80;;
21326;SDS011;10822;51.532;6.770;2023-04-30T02:42:08;12.65;;;8.98;;
21326;SDS011;10822;51.532;6.770;2023-04-30T02:44:34;10.93;;;8.30;;
21326;SDS011;10822;51.532;6.770;2023-04-30T02:47:00;11.23;;;8.70;;
21326;SDS011;10822;51.532;6.770;2023-04-30T02:49:26;11.90;;;8.40;;
21326;SDS011;10822;51.532;6.770;2023-04-30T02:51:52;11.32;;;8.38;;
21326;SDS011;10822;51.532;6.770;2023-04-30T02:54:18;11.95;;;8.40;;
21326;SDS011;10822;51.532;6.770;2023-04-30T02:56:45;13.40;;;8.85;;
21326;SDS011;10822;51.532;6.770;2023-04-30T02:59:11;13.07;;;8.35;;
21326;SDS011;10822;51.532;6.770;2023-04-30T03:01:37;11.80;;;8.80;;
21326;SDS011;10822;51.532;6.770;2023-04-30T03:04:03;12.45;;;8.70;;
21326;SDS011;10822;51.532;6.770;2023-04-30T03:06:32;10.77;;;7.95;;
21326;SDS011;10822;51.532;6.770;2023-04-30T03:08:58;11.75;;;7.85;;
21326;SDS011;10822;51.532;6.770;2023-04-30T03:11:25;11.05;;;8.38;;
21326;SDS011;10822;51.532;6.770;2023-04-30T03:13:51;11.32;;;7.93;;
21326;SDS011;10822;51.532;6.770;2023-04-30T03:16:17;11.55;;;8.05;;
21326;SDS011;10822;51.532;6.770;2023-04-30T03:18:44;10.27;;;8.32;;
21326;SDS011;10822;51.532;6.770;2023-04-30T03:21:10;15.15;;;8.52;;
21326;SDS011;10822;51.532;6.770;2023-04-30T03:23:36;11.68;;;9.02;;
21326;SDS011;10822;51.532;6.770;2023-04-30T03:26:02;12.95;;;9.23;;
21326;SDS011;10822;51.532;6.770;2023-04-30T03:28:28;15.23;;;9.50;;
21326;SDS011;10822;51.532;6.770;2023-04-30T03:30:54;12.38;;;8.30;;
21326;SDS011;10822;51.532;6.770;2023-04-30T03:33:20;11.07;;;8.00;;
21326;SDS011;10822;51.532;6.770;2023-04-30T03:35:46;11.85;;;8.48;;
21326;SDS011;10822;51.532;6.770;2023-04-30T03:38:13;15.20;;;9.23;;
21326;SDS011;10822;51.532;6.770;2023-04-30T03:40:39;11.52;;;8.40;;
21326;SDS011;10822;51.532;6.770;2023-04-30T03:43:05;11.07;;;8.93;;
21326;SDS011;10822;51.532;6.770;2023-04-30T03:45:31;12.20;;;8.93;;
21326;SDS011;10822;51.532;6.770;2023-04-30T03:47:57;14.75;;;9.40;;
21326;SDS011;10822;51.532;6.770;2023-04-30T03:50:23;13.90;;;9.10;;
21326;SDS011;10822;51.532;6.770;2023-04-30T03:52:49;14.95;;;9.30;;
21326;SDS011;10822;51.532;6.770;2023-04-30T03:55:15;13.98;;;9.88;;
21326;SDS011;10822;51.532;6.770;2023-04-30T03:57:42;11.95;;;8.80;;
21326;SDS011;10822;51.532;6.770;2023-04-30T04:00:08;12.20;;;8.35;;
21326;SDS011;10822;51.532;6.770;2023-04-30T04:02:35;12.00;;;8.45;;
21326;SDS011;10822;51.532;6.770;2023-04-30T04:05:01;13.18;;;8.90;;
21326;SDS011;10822;51.532;6.770;2023-04-30T04:07:27;11.88;;;8.95;;
21326;SDS011;10822;51.532;6.770;2023-04-30T04:09:53;12.95;;;8.85;;
21326;SDS011;10822;51.532;6.770;2023-04-30T04:12:20;11.77;;;8.93;;
21326;SDS011;10822;51.532;6.770;2023-04-30T04:14:46;13.20;;;8.55;;
21326;SDS011;10822;51.532;6.770;2023-04-30T04:17:12;14.25;;;8.95;;
21326;SDS011;10822;51.532;6.770;2023-04-30T04:19:38;13.77;;;9.60;;
21326;SDS011;10822;51.532;6.770;2023-04-30T04:22:04;13.93;;;9.50;;
21326;SDS011;10822;51.532;6.770;2023-04-30T04:24:30;14.32;;;9.40;;
21326;SDS011;10822;51.532;6.770;2023-04-30T04:26:57;11.95;;;8.82;;
21326;SDS011;10822;51.532;6.770;2023-04-30T04:29:23;12.15;;;8.98;;
21326;SDS011;10822;51.532;6.770;2023-04-30T04:31:49;13.88;;;9.05;;
21326;SDS011;10822;51.532;6.770;2023-04-30T04:34:15;11.35;;;8.57;;
21326;SDS011;10822;51.532;6.770;2023-04-30T04:36:41;12.63;;;9.02;;
21326;SDS011;10822;51.532;6.770;2023-04-30T04:39:07;14.50;;;10.10;;
21326;SDS011;10822;51.532;6.770;2023-04-30T04:41:34;14.13;;;8.90;;
21326;SDS011;10822;51.532;6.770;2023-04-30T04:44:00;14.02;;;9.88;;
21326;SDS011;10822;51.532;6.770;2023-04-30T04:46:27;14.15;;;9.50;;
21326;SDS011;10822;51.532;6.770;2023-04-30T04:48:53;13.45;;;9.35;;
21326;SDS011;10822;51.532;6.770;2023-04-30T04:51:19;14.32;;;9.32;;
21326;SDS011;10822;51.532;6.770;2023-04-30T04:53:45;14.05;;;9.93;;
21326;SDS011;10822;51.532;6.770;2023-04-30T04:56:11;12.57;;;8.90;;
21326;SDS011;10822;51.532;6.770;2023-04-30T04:58:38;13.38;;;8.65;;
21326;SDS011;10822;51.532;6.770;2023-04-30T05:01:04;13.88;;;9.10;;
21326;SDS011;10822;51.532;6.770;2023-04-30T05:03:30;13.57;;;9.07;;
21326;SDS011;10822;51.532;6.770;2023-04-30T05:05:57;11.23;;;8.40;;
21326;SDS011;10822;51.532;6.770;2023-04-30T05:08:23;12.57;;;8.98;;
21326;SDS011;10822;51.532;6.770;2023-04-30T05:10:49;15.23;;;9.82;;
21326;SDS011;10822;51.532;6.770;2023-04-30T05:13:15;12.75;;;9.57;;
21326;SDS011;10822;51.532;6.770;2023-04-30T05:15:41;14.27;;;9.57;;
21326;SDS011;10822;51.532;6.770;2023-04-30T05:18:07;12.02;;;8.93;;
21326;SDS011;10822;51.532;6.770;2023-04-30T05:20:33;11.15;;;8.60;;
21326;SDS011;10822;51.532;6.770;2023-04-30T05:22:59;11.20;;;8.95;;
21326;SDS011;10822;51.532;6.770;2023-04-30T05:25:25;13.95;;;8.95;;
21326;SDS011;10822;51.532;6.770;2023-04-30T05:27:51;12.70;;;8.20;;
21326;SDS011;10822;51.532;6.770;2023-04-30T05:30:17;14.88;;;10.18;;
21326;SDS011;10822;51.532;6.770;2023-04-30T05:32:43;11.95;;;8.68;;
21326;SDS011;10822;51.532;6.770;2023-04-30T05:35:14;13.68;;;8.45;;
21326;SDS011;10822;51.532;6.770;2023-04-30T05:37:40;12.63;;;8.93;;
21326;SDS011;10822;51.532;6.770;2023-04-30T05:40:06;13.27;;;8.45;;
21326;SDS011;10822;51.532;6.770;2023-04-30T05:42:32;11.88;;;8.40;;
21326;SDS011;10822;51.532;6.770;2023-04-30T05:44:58;13.85;;;7.82;;
21326;SDS011;10822;51.532;6.770;2023-04-30T05:47:25;10.57;;;7.60;;
21326;SDS011;10822;51.532;6.770;2023-04-30T05:49:51;9.50;;;7.10;;
21326;SDS011;10822;51.532;6.770;2023-04-30T05:52:17;8.18;;;6.35;;
21326;SDS011;10822;51.532;6.770;2023-04-30T05:54:43;7.75;;;5.63;;
21326;SDS011;10822;51.532;6.770;2023-04-30T05:57:09;8.50;;;5.63;;
21326;SDS011;10822;51.532;6.770;2023-04-30T05:59:35;7.43;;;5.63;;
21326;SDS011;10822;51.532;6.770;2023-04-30T06:02:01;7.47;;;5.45;;
21326;SDS011;10822;51.532;6.770;2023-04-30T06:04:27;7.20;;;5.45;;
21326;SDS011;10822;51.532;6.770;2023-04-30T06:06:53;7.53;;;5.40;;
21326;SDS011;10822;51.532;6.770;2023-04-30T06:09:19;7.90;;;5.32;;
21326;SDS011;10822;51.532;6.770;2023-04-30T06:11:45;8.32;;;5.55;;
21326;SDS011;10822;51.532;6.770;2023-04-30T06:14:14;8.93;;;5.32;;
21326;SDS011;10822;51.532;6.770;2023-04-30T06:16:40;7.40;;;5.50;;
21326;SDS011;10822;51.532;6.770;2023-04-30T06:19:06;7.07;;;5.53;;
21326;SDS011;10822;51.532;6.770;2023-04-30T06:21:32;6.72;;;5.07;;
21326;SDS011;10822;51.532;6.770;2023-04-30T06:23:58;8.77;;;5.55;;
21326;SDS011;10822;51.532;6.770;2023-04-30T06:26:24;7.82;;;5.47;;
21326;SDS011;10822;51.532;6.770;2023-04-30T06:28:50;8.90;;;5.88;;
21326;SDS011;10822;51.532;6.770;2023-04-30T06:31:16;7.93;;;5.70;;
21326;SDS011;10822;51.532;6.770;2023-04-30T06:33:42;8.50;;;5.90;;
21326;SDS011;10822;51.532;6.770;2023-04-30T06:36:08;6.28;;;5.63;;
21326;SDS011;10822;51.532;6.770;2023-04-30T06:38:34;8.20;;;5.88;;
21326;SDS011;10822;51.532;6.770;2023-04-30T06:41:00;9.23;;;6.18;;
21326;SDS011;10822;51.532;6.770;2023-04-30T06:43:26;7.72;;;6.03;;
21326;SDS011;10822;51.532;6.770;2023-04-30T06:45:52;7.25;;;5.72;;
21326;SDS011;10822;51.532;6.770;2023-04-30T06:48:18;6.68;;;5.53;;
21326;SDS011;10822;51.532;6.770;2023-04-30T06:50:44;7.68;;;6.13;;
21326;SDS011;10822;51.532;6.770;2023-04-30T06:53:10;9.18;;;6.00;;
21326;SDS011;10822;51.532;6.770;2023-04-30T06:55:36;7.85;;;6.00;;
21326;SDS011;10822;51.532;6.770;2023-04-30T06:58:02;7.45;;;5.97;;
21326;SDS011;10822;51.532;6.770;2023-04-30T07:00:29;8.68;;;6.22;;
21326;SDS011;10822;51.532;6.770;2023-04-30T07:02:56;7.22;;;5.65;;
21326;SDS011;10822;51.532;6.770;2023-04-30T07:05:24;10.43;;;6.20;;
21326;SDS011;10822;51.532;6.770;2023-04-30T07:07:50;7.55;;;6.03;;
21326;SDS011;10822;51.532;6.770;2023-04-30T07:10:17;9.43;;;6.68;;
21326;SDS011;10822;51.532;6.770;2023-04-30T07:12:43;7.95;;;5.75;;
21326;SDS011;10822;51.532;6.770;2023-04-30T07:15:09;9.80;;;6.63;;
21326;SDS011;10822;51.532;6.770;2023-04-30T07:17:35;7.25;;;5.85;;
21326;SDS011;10822;51.532;6.770;2023-04-30T07:20:02;8.27;;;5.57;;
21326;SDS011;10822;51.532;6.770;2023-04-30T07:22:28;8.00;;;5.43;;
21326;SDS011;10822;51.532;6.770;2023-04-30T07:24:55;8.15;;;6.63;;
21326;SDS011;10822;51.532;6.770;2023-04-30T07:27:21;7.75;;;5.53;;
21326;SDS011;10822;51.532;6.770;2023-04-30T07:29:47;8.77;;;5.38;;
21326;SDS011;10822;51.532;6.770;2023-04-30T07:32:13;9.45;;;6.15;;
21326;SDS011;10822;51.532;6.770;2023-04-30T07:34:40;8.82;;;6.20;;
21326;SDS011;10822;51.532;6.770;2023-04-30T07:37:06;8.88;;;5.72;;
21326;SDS011;10822;51.532;6.770;2023-04-30T07:39:33;7.68;;;5.78;;
21326;SDS011;10822;51.532;6.770;2023-04-30T07:41:59;7.60;;;5.47;;
21326;SDS011;10822;51.532;6.770;2023-04-30T07:44:27;7.28;;;5.40;;
21326;SDS011;10822;51.532;6.770;2023-04-30T07:46:53;6.95;;;5.43;;
21326;SDS011;10822;51.532;6.770;2023-04-30T07:49:19;10.45;;;6.10;;
21326;SDS011;10822;51.532;6.770;2023-04-30T07:51:45;8.80;;;6.13;;
21326;SDS011;10822;51.532;6.770;2023-04-30T07:54:11;8.63;;;5.93;;
21326;SDS011;10822;51.532;6.770;2023-04-30T07:56:37;7.07;;;6.10;;
21326;SDS011;10822;51.532;6.770;2023-04-30T07:59:03;10.13;;;5.60;;
21326;SDS011;10822;51.532;6.770;2023-04-30T08:01:29;10.50;;;6.32;;
21326;SDS011;10822;51.532;6.770;2023-04-30T08:03:55;9.10;;;6.03;;
21326;SDS011;10822;51.532;6.770;2023-04-30T08:06:21;6.15;;;5.15;;
21326;SDS011;10822;51.532;6.770;2023-04-30T08:08:47;7.93;;;5.63;;
21326;SDS011;10822;51.532;6.770;2023-04-30T08:11:13;5.72;;;5.05;;
21326;SDS011;10822;51.532;6.770;2023-04-30T08:13:40;7.97;;;5.22;;
21326;SDS011;10822;51.532;6.770;2023-04-30T08:16:06;7.25;;;4.82;;
21326;SDS011;10822;51.532;6.770;2023-04-30T08:18:32;6.70;;;4.65;;
21326;SDS011;10822;51.532;6.770;2023-04-30T08:20:58;9.43;;;5.15;;
21326;SDS011;10822;51.532;6.770;2023-04-30T08:23:25;5.45;;;4.50;;
21326;SDS011;10822;51.532;6.770;2023-04-30T08:25:51;5.60;;;4.93;;
21326;SDS011;10822;51.532;6.770;2023-04-30T08:28:16;8.75;;;5.28;;
21326;SDS011;10822;51.532;6.770;2023-04-30T08:30:42;8.80;;;5.18;;
21326;SDS011;10822;51.532;6.770;2023-04-30T08:33:08;6.30;;;4.95;;
21326;SDS011;10822;51.532;6.770;2023-04-30T08:35:35;6.55;;;5.15;;
21326;SDS011;10822;51.532;6.770;2023-04-30T08:38:01;9.65;;;5.28;;
21326;SDS011;10822;51.532;6.770;2023-04-30T08:40:27;5.88;;;4.13;;
21326;SDS011;10822;51.532;6.770;2023-04-30T08:42:58;5.78;;;4.00;;
21326;SDS011;10822;51.532;6.770;2023-04-30T08:45:25;5.57;;;4.17;;
21326;SDS011;10822;51.532;6.770;2023-04-30T08:47:51;8.68;;;4.43;;
21326;SDS011;10822;51.532;6.770;2023-04-30T08:50:17;6.72;;;4.35;;
21326;SDS011;10822;51.532;6.770;2023-04-30T08:52:43;4.72;;;3.50;;
21326;SDS011;10822;51.532;6.770;2023-04-30T08:55:09;5.10;;;3.90;;
21326;SDS011;10822;51.532;6.770;2023-04-30T08:57:35;5.47;;;3.95;;
21326;SDS011;10822;51.532;6.770;2023-04-30T09:00:02;5.13;;;3.45;;
21326;SDS011;10822;51.532;6.770;2023-04-30T09:02:30;5.63;;;3.40;;
21326;SDS011;10822;51.532;6.770;2023-04-30T09:04:56;5.50;;;3.67;;
21326;SDS011;10822;51.532;6.770;2023-04-30T09:07:23;4.75;;;3.28;;
21326;SDS011;10822;51.532;6.770;2023-04-30T09:09:51;4.30;;;3.35;;
21326;SDS011;10822;51.532;6.770;2023-04-30T09:12:17;5.00;;;3.30;;
21326;SDS011;10822;51.532;6.770;2023-04-30T09:14:57;4.13;;;2.70;;
21326;SDS011;10822;51.532;6.770;2023-04-30T09:17:24;4.93;;;3.05;;
21326;SDS011;10822;51.532;6.770;2023-04-30T09:19:50;6.47;;;3.20;;
21326;SDS011;10822;51.532;6.770;2023-04-30T09:22:17;4.30;;;3.00;;
21326;SDS011;10822;51.532;6.770;2023-04-30T09:24:47;3.70;;;2.80;;
21326;SDS011;10822;51.532;6.770;2023-04-30T09:27:20;5.53;;;2.58;;
21326;SDS011;10822;51.532;6.770;2023-04-30T09:29:46;4.57;;;2.40;;
21326;SDS011;10822;51.532;6.770;2023-04-30T09:32:13;2.78;;;2.42;;
21326;SDS011;10822;51.532;6.770;2023-04-30T09:34:39;3.67;;;2.88;;
21326;SDS011;10822;51.532;6.770;2023-04-30T09:37:05;5.18;;;2.63;;
21326;SDS011;10822;51.532;6.770;2023-04-30T09:39:32;4.45;;;2.70;;
21326;SDS011;10822;51.532;6.770;2023-04-30T09:42:10;3.33;;;2.70;;
21326;SDS011;10822;51.532;6.770;2023-04-30T09:44:37;3.72;;;2.88;;
21326;SDS011;10822;51.532;6.770;2023-04-30T09:47:03;4.45;;;2.90;;
21326;SDS011;10822;51.532;6.770;2023-04-30T09:49:29;3.75;;;2.65;;
21326;SDS011;10822;51.532;6.770;2023-04-30T09:51:56;4.60;;;2.85;;
21326;SDS011;10822;51.532;6.770;2023-04-30T09:54:27;5.18;;;3.50;;
21326;SDS011;10822;51.532;6.770;2023-04-30T09:56:54;5.60;;;3.70;;
21326;SDS011;10822;51.532;6.770;2023-04-30T09:59:22;6.32;;;4.10;;
21326;SDS011;10822;51.532;6.770;2023-04-30T10:01:52;5.93;;;3.90;;
21326;SDS011;10822;51.532;6.770;2023-04-30T10:04:18;6.40;;;4.13;;
21326;SDS011;10822;51.532;6.770;2023-04-30T10:06:45;5.68;;;3.85;;
21326;SDS011;10822;51.532;6.770;2023-04-30T10:09:11;5.35;;;3.72;;
21326;SDS011;10822;51.532;6.770;2023-04-30T10:11:39;5.13;;;3.75;;
21326;SDS011;10822;51.532;6.770;2023-04-30T10:14:11;4.57;;;3.80;;
21326;SDS011;10822;51.532;6.770;2023-04-30T10:16:46;5.70;;;3.90;;
21326;SDS011;10822;51.532;6.770;2023-04-30T10:19:21;3.63;;;3.15;;
21326;SDS011;10822;51.532;6.770;2023-04-30T10:21:47;4.55;;;3.50;;
21326;SDS011;10822;51.532;6.770;2023-04-30T10:24:13;4.57;;;3.05;;
21326;SDS011;10822;51.532;6.770;2023-04-30T10:26:42;3.30;;;2.83;;
21326;SDS011;10822;51.532;6.770;2023-04-30T10:29:08;4.07;;;2.78;;
21326;SDS011;10822;51.532;6.770;2023-04-30T10:31:34;3.90;;;2.90;;
21326;SDS011;10822;51.532;6.770;2023-04-30T10:34:04;3.95;;;2.50;;
21326;SDS011;10822;51.532;6.770;2023-04-30T10:38:57;3.47;;;2.40;;
21326;SDS011;10822;51.532;6.770;2023-04-30T10:41:25;4.90;;;2.20;;
21326;SDS011;10822;51.532;6.770;2023-04-30T10:43:55;2.90;;;2.00;;
21326;SDS011;10822;51.532;6.770;2023-04-30T10:46:22;2.75;;;2.08;;
21326;SDS011;10822;51.532;6.770;2023-04-30T10:48:48;2.95;;;2.10;;
21326;SDS011;10822;51.532;6.770;2023-04-30T10:51:16;3.20;;;2.10;;
21326;SDS011;10822;51.532;6.770;2023-04-30T10:53:42;3.47;;;1.90;;
21326;SDS011;10822;51.532;6.770;2023-04-30T10:56:09;2.42;;;1.80;;
21326;SDS011;10822;51.532;6.770;2023-04-30T10:58:37;2.55;;;1.75;;
21326;SDS011;10822;51.532;6.770;2023-04-30T11:01:05;1.77;;;1.40;;
21326;SDS011;10822;51.532;6.770;2023-04-30T11:03:32;1.52;;;1.40;;
21326;SDS011;10822;51.532;6.770;2023-04-30T11:05:59;2.35;;;1.77;;
21326;SDS011;10822;51.532;6.770;2023-04-30T11:08:31;3.75;;;1.95;;
21326;SDS011;10822;51.532;6.770;2023-04-30T11:10:57;2.22;;;1.60;;
21326;SDS011;10822;51.532;6.770;2023-04-30T11:13:28;3.33;;;1.50;;
21326;SDS011;10822;51.532;6.770;2023-04-30T11:16:03;2.05;;;1.60;;
21326;SDS011;10822;51.532;6.770;2023-04-30T11:18:29;2.20;;;1.70;;
21326;SDS011;10822;51.532;6.770;2023-04-30T11:20:56;2.20;;;1.80;;
21326;SDS011;10822;51.532;6.770;2023-04-30T11:23:22;2.50;;;1.90;;
21326;SDS011;10822;51.532;6.770;2023-04-30T11:25:52;2.30;;;1.60;;
21326;SDS011;10822;51.532;6.770;2023-04-30T11:28:20;2.10;;;1.67;;
21326;SDS011;10822;51.532;6.770;2023-04-30T11:30:49;2.83;;;1.63;;
21326;SDS011;10822;51.532;6.770;2023-04-30T11:33:15;2.17;;;1.50;;
21326;SDS011;10822;51.532;6.770;2023-04-30T11:35:41;2.50;;;1.50;;
21326;SDS011;10822;51.532;6.770;2023-04-30T11:38:08;1.98;;;1.63;;
21326;SDS011;10822;51.532;6.770;2023-04-30T11:40:34;3.70;;;1.67;;
21326;SDS011;10822;51.532;6.770;2023-04-30T11:43:00;2.13;;;1.45;;
21326;SDS011;10822;51.532;6.770;2023-04-30T11:45:26;3.17;;;1.30;;
21326;SDS011;10822;51.532;6.770;2023-04-30T11:47:53;6.10;;;1.60;;
21326;SDS011;10822;51.532;6.770;2023-04-30T11:50:20;2.35;;;1.58;;
21326;SDS011;10822;51.532;6.770;2023-04-30T11:52:51;3.25;;;1.50;;
21326;SDS011;10822;51.532;6.770;2023-04-30T11:55:18;1.83;;;1.48;;
21326;SDS011;10822;51.532;6.770;2023-04-30T11:57:45;3.53;;;1.50;;
21326;SDS011;10822;51.532;6.770;2023-04-30T12:00:16;2.28;;;1.50;;
21326;SDS011;10822;51.532;6.770;2023-04-30T12:02:43;2.00;;;1.55;;
21326;SDS011;10822;51.532;6.770;2023-04-30T12:07:43;2.15;;;1.20;;
21326;SDS011;10822;51.532;6.770;2023-04-30T12:10:10;3.00;;;1.17;;
21326;SDS011;10822;51.532;6.770;2023-04-30T12:12:36;1.60;;;0.95;;
21326;SDS011;10822;51.532;6.770;2023-04-30T12:15:09;1.95;;;1.33;;
21326;SDS011;10822;51.532;6.770;2023-04-30T12:17:36;1.38;;;1.00;;
21326;SDS011;10822;51.532;6.770;2023-04-30T12:20:02;2.47;;;1.10;;
21326;SDS011;10822;51.532;6.770;2023-04-30T12:22:29;1.38;;;1.10;;
21326;SDS011;10822;51.532;6.770;2023-04-30T12:24:55;2.20;;;1.13;;
21326;SDS011;10822;51.532;6.770;2023-04-30T12:27:21;2.17;;;1.13;;
21326;SDS011;10822;51.532;6.770;2023-04-30T12:29:47;1.65;;;1.00;;
21326;SDS011;10822;51.532;6.770;2023-04-30T12:32:16;1.38;;;1.13;;
21326;SDS011;10822;51.532;6.770;2023-04-30T12:34:43;2.55;;;1.00;;
21326;SDS011;10822;51.532;6.770;2023-04-30T12:37:09;2.50;;;1.10;;
21326;SDS011;10822;51.532;6.770;2023-04-30T12:39:35;1.65;;;1.10;;
21326;SDS011;10822;51.532;6.770;2023-04-30T12:42:02;1.35;;;0.70;;
21326;SDS011;10822;51.532;6.770;2023-04-30T12:44:28;1.10;;;0.80;;
21326;SDS011;10822;51.532;6.770;2023-04-30T12:46:55;1.20;;;0.70;;
21326;SDS011;10822;51.532;6.770;2023-04-30T12:49:32;1.08;;;0.98;;
21326;SDS011;10822;51.532;6.770;2023-04-30T12:52:05;0.90;;;0.60;;
21326;SDS011;10822;51.532;6.770;2023-04-30T12:54:31;1.17;;;0.70;;
21326;SDS011;10822;51.532;6.770;2023-04-30T12:57:08;1.00;;;0.68;;
21326;SDS011;10822;51.532;6.770;2023-04-30T13:02:21;1.90;;;1.05;;
21326;SDS011;10822;51.532;6.770;2023-04-30T13:04:48;1.30;;;0.70;;
21326;SDS011;10822;51.532;6.770;2023-04-30T13:07:14;1.02;;;0.65;;
21326;SDS011;10822;51.532;6.770;2023-04-30T13:09:40;1.42;;;0.90;;
21326;SDS011;10822;51.532;6.770;2023-04-30T13:12:06;1.25;;;0.70;;
21326;SDS011;10822;51.532;6.770;2023-04-30T13:14:32;0.90;;;0.65;;
21326;SDS011;10822;51.532;6.770;2023-04-30T13:16:58;1.50;;;0.95;;
21326;SDS011;10822;51.532;6.770;2023-04-30T13:19:26;2.97;;;1.23;;
21326;SDS011;10822;51.532;6.770;2023-04-30T13:21:54;1.00;;;0.77;;
21326;SDS011;10822;51.532;6.770;2023-04-30T13:24:20;1.98;;;1.08;;
21326;SDS011;10822;51.532;6.770;2023-04-30T13:26:46;1.77;;;1.08;;
21326;SDS011;10822;51.532;6.770;2023-04-30T13:29:12;1.65;;;1.10;;
21326;SDS011;10822;51.532;6.770;2023-04-30T13:31:38;1.90;;;1.00;;
21326;SDS011;10822;51.532;6.770;2023-04-30T13:34:06;1.40;;;1.02;;
21326;SDS011;10822;51.532;6.770;2023-04-30T13:36:32;1.50;;;1.08;;
21326;SDS011;10822;51.532;6.770;2023-04-30T13:38:58;26.88;;;16.00;;
21326;SDS011;10822;51.532;6.770;2023-04-30T13:41:24;4.18;;;1.95;;
21326;SDS011;10822;51.532;6.770;2023-04-30T13:43:50;2.50;;;1.05;;
21326;SDS011;10822;51.532;6.770;2023-04-30T13:46:16;0.98;;;0.77;;
21326;SDS011;10822;51.532;6.770;2023-04-30T13:48:42;1.25;;;0.70;;
21326;SDS011;10822;51.532;6.770;2023-04-30T13:51:12;2.15;;;0.90;;
21326;SDS011;10822;51.532;6.770;2023-04-30T13:53:38;1.67;;;0.82;;
21326;SDS011;10822;51.532;6.770;2023-04-30T13:56:04;2.00;;;0.88;;
21326;SDS011;10822;51.532;6.770;2023-04-30T13:58:31;0.90;;;0.73;;
21326;SDS011;10822;51.532;6.770;2023-04-30T14:00:57;2.40;;;1.10;;
21326;SDS011;10822;51.532;6.770;2023-04-30T14:03:23;3.70;;;2.38;;
21326;SDS011;10822;51.532;6.770;2023-04-30T14:05:49;3.33;;;1.80;;
21326;SDS011;10822;51.532;6.770;2023-04-30T14:08:15;2.70;;;1.25;;
21326;SDS011;10822;51.532;6.770;2023-04-30T14:10:41;15.07;;;9.95;;
21326;SDS011;10822;51.532;6.770;2023-04-30T14:13:07;6.07;;;2.70;;
21326;SDS011;10822;51.532;6.770;2023-04-30T14:15:34;3.35;;;2.30;;
21326;SDS011;10822;51.532;6.770;2023-04-30T14:18:00;2.45;;;1.42;;
21326;SDS011;10822;51.532;6.770;2023-04-30T14:20:26;4.22;;;1.60;;
21326;SDS011;10822;51.532;6.770;2023-04-30T14:22:52;1.52;;;1.10;;
21326;SDS011;10822;51.532;6.770;2023-04-30T14:25:18;2.42;;;1.30;;
21326;SDS011;10822;51.532;6.770;2023-04-30T14:27:44;2.03;;;1.08;;
21326;SDS011;10822;51.532;6.770;2023-04-30T14:30:11;1.90;;;0.80;;
21326;SDS011;10822;51.532;6.770;2023-04-30T14:32:37;1.95;;;0.90;;
21326;SDS011;10822;51.532;6.770;2023-04-30T14:35:03;1.55;;;0.88;;
21326;SDS011;10822;51.532;6.770;2023-04-30T14:37:29;2.20;;;0.90;;
21326;SDS011;10822;51.532;6.770;2023-04-30T14:39:56;0.77;;;0.57;;
21326;SDS011;10822;51.532;6.770;2023-04-30T14:42:24;1.23;;;0.85;;
21326;SDS011;10822;51.532;6.770;2023-04-30T14:44:50;2.30;;;1.00;;
21326;SDS011;10822;51.532;6.770;2023-04-30T14:47:17;2.35;;;1.15;;
21326;SDS011;10822;51.532;6.770;2023-04-30T14:49:46;4.25;;;2.80;;
21326;SDS011;10822;51.532;6.770;2023-04-30T14:52:14;5.82;;;3.40;;
21326;SDS011;10822;51.532;6.770;2023-04-30T14:54:40;4.05;;;2.33;;
21326;SDS011;10822;51.532;6.770;2023-04-30T14:57:06;1.92;;;1.60;;
21326;SDS011;10822;51.532;6.770;2023-04-30T14:59:32;1.70;;;1.30;;